createdAt,value
2022-07-27T00:01:39.780Z,96008.09
2022-07-27T00:04:06.253Z,96000.44
2022-07-27T00:06:32.685Z,95999.47
2022-07-27T00:08:59.001Z,96003.06
2022-07-27T00:11:25.349Z,96008.34
2022-07-27T00:13:51.696Z,96005.72
2022-07-27T00:16:18.149Z,96004.03
2022-07-27T00:18:44.560Z,96004.75
2022-07-27T00:21:11.154Z,95998.75
2022-07-27T00:23:37.603Z,96001.41
2022-07-27T00:26:03.926Z,96010.31
2022-07-27T00:28:30.247Z,96005.03
2022-07-27T00:30:56.616Z,96004.03
2022-07-27T00:33:22.942Z,95993.63
2022-07-27T00:35:49.380Z,95998.06
2022-07-27T00:38:16.523Z,95991.97
2022-07-27T00:40:43.056Z,95992.81
2022-07-27T00:43:09.559Z,95996.38
2022-07-27T00:45:35.990Z,95993.75
2022-07-27T00:48:02.320Z,95991.09
2022-07-27T00:50:28.626Z,95990.28
2022-07-27T00:52:55.322Z,95991.97
2022-07-27T00:55:21.697Z,95985.00
2022-07-27T00:57:58.042Z,95988.47
2022-07-27T01:00:26.235Z,95985.16
2022-07-27T01:02:52.632Z,95989.44
2022-07-27T01:05:19.186Z,95975.56
2022-07-27T01:07:47.296Z,95976.38
2022-07-27T01:10:13.613Z,95971.94
2022-07-27T01:12:39.957Z,95971.94
2022-07-27T01:15:06.566Z,95965.00
2022-07-27T01:17:33.626Z,95958.03
2022-07-27T01:20:00.013Z,95961.50
2022-07-27T01:22:26.998Z,95959.72
2022-07-27T01:24:53.383Z,95958.03
2022-07-27T01:27:19.842Z,95958.03
2022-07-27T01:29:46.209Z,95953.72
2022-07-27T01:32:12.629Z,95959.00
2022-07-27T01:34:39.158Z,95950.41
2022-07-27T01:37:05.663Z,95948.59
2022-07-27T01:39:32.591Z,95946.91
2022-07-27T01:41:59.598Z,95945.13
2022-07-27T01:44:25.980Z,95951.09
2022-07-27T01:46:52.459Z,95935.53
2022-07-27T01:49:19.125Z,95944.41
2022-07-27T01:51:45.500Z,95940.81
2022-07-27T01:54:12.370Z,95945.25
2022-07-27T01:56:38.705Z,95932.06
2022-07-27T01:59:05.116Z,95930.41
2022-07-27T02:01:31.525Z,95924.28
2022-07-27T02:03:57.908Z,95921.63
2022-07-27T02:06:24.350Z,95919.13
2022-07-27T02:08:50.667Z,95927.75
2022-07-27T02:11:35.464Z,95930.53
2022-07-27T02:14:01.773Z,95926.22
2022-07-27T02:16:28.207Z,95913.84
2022-07-27T02:18:54.853Z,95928.56
2022-07-27T02:21:21.170Z,95926.22
2022-07-27T02:23:48.324Z,95912.31
2022-07-27T02:26:14.917Z,95906.06
2022-07-27T02:28:41.283Z,95906.06
2022-07-27T02:31:07.642Z,95904.41
2022-07-27T02:33:34.053Z,95899.13
2022-07-27T02:36:00.341Z,95904.41
2022-07-27T02:38:26.696Z,95899.13
2022-07-27T02:40:53.043Z,95890.53
2022-07-27T02:43:19.425Z,95895.50
2022-07-27T02:45:46.522Z,95885.25
2022-07-27T02:48:13.280Z,95887.88
2022-07-27T02:50:39.764Z,95878.28
2022-07-27T02:53:06.078Z,95876.63
2022-07-27T02:55:32.404Z,95877.47
2022-07-27T02:57:58.714Z,95881.91
2022-07-27T03:00:25.410Z,95888.03
2022-07-27T03:02:51.739Z,95880.25
2022-07-27T03:05:18.103Z,95884.53
2022-07-27T03:10:20.630Z,95893.31
2022-07-27T03:12:46.954Z,95885.50
2022-07-27T03:15:13.290Z,95896.06
2022-07-27T03:17:39.621Z,95899.69
2022-07-27T03:20:08.099Z,95893.56
2022-07-27T03:22:37.009Z,95901.47
2022-07-27T03:25:03.699Z,95884.81
2022-07-27T03:27:30.069Z,95895.34
2022-07-27T03:29:56.587Z,95892.72
2022-07-27T03:32:22.925Z,95891.91
2022-07-27T03:34:49.305Z,95891.06
2022-07-27T03:37:17.126Z,95891.06
2022-07-27T03:39:43.482Z,95896.34
2022-07-27T03:42:09.792Z,95905.22
2022-07-27T03:44:36.121Z,95907.03
2022-07-27T03:47:02.444Z,95904.38
2022-07-27T03:49:28.823Z,95910.50
2022-07-27T03:51:55.208Z,95908.84
2022-07-27T03:54:21.559Z,95910.50
2022-07-27T03:56:47.868Z,95919.41
2022-07-27T03:59:14.734Z,95913.41
2022-07-27T04:01:41.491Z,95917.72
2022-07-27T04:04:07.980Z,95915.06
2022-07-27T04:06:34.318Z,95922.19
2022-07-27T04:09:08.624Z,95916.06
2022-07-27T04:11:35.651Z,95916.06
2022-07-27T04:14:04.395Z,95910.78
2022-07-27T04:16:35.651Z,95914.41
2022-07-27T04:19:02.458Z,95914.41
2022-07-27T04:21:28.777Z,95914.41
2022-07-27T04:24:00.607Z,95919.66
2022-07-27T04:26:27.059Z,95915.25
2022-07-27T04:28:53.379Z,95914.41
2022-07-27T04:31:19.772Z,95920.66
2022-07-27T04:33:46.135Z,95923.28
2022-07-27T04:36:12.486Z,95925.06
2022-07-27T04:38:38.851Z,95928.56
2022-07-27T04:41:05.359Z,95920.78
2022-07-27T04:43:31.667Z,95920.78
2022-07-27T04:45:58.051Z,95925.22
2022-07-27T04:48:24.499Z,95919.94
2022-07-27T04:50:50.898Z,95914.66
2022-07-27T04:53:17.735Z,95914.66
2022-07-27T04:55:45.182Z,95920.78
2022-07-27T04:58:12.119Z,95919.94
2022-07-27T05:00:38.426Z,95920.91
2022-07-27T05:03:05.020Z,95918.28
2022-07-27T05:05:31.596Z,95923.56
2022-07-27T05:07:57.937Z,95920.91
2022-07-27T05:10:25.498Z,95927.16
2022-07-27T05:12:51.875Z,95913.84
2022-07-27T05:15:18.576Z,95920.91
2022-07-27T05:17:44.974Z,95921.88
2022-07-27T05:20:11.745Z,95927.16
2022-07-27T05:22:40.109Z,95932.44
2022-07-27T05:25:07.024Z,95936.03
2022-07-27T05:27:33.875Z,95936.88
2022-07-27T05:30:00.254Z,95936.88
2022-07-27T05:32:26.585Z,95936.03
2022-07-27T05:34:52.916Z,95936.03
2022-07-27T05:37:19.297Z,95937.72
2022-07-27T05:39:45.699Z,95946.59
2022-07-27T05:42:12.035Z,95945.63
2022-07-27T05:44:38.367Z,95943.00
2022-07-27T05:47:06.243Z,95946.59
2022-07-27T05:49:32.936Z,95952.97
2022-07-27T05:51:59.305Z,95951.28
2022-07-27T05:54:25.646Z,95956.84
2022-07-27T05:56:52.313Z,95946.13
2022-07-27T05:59:18.670Z,95949.84
2022-07-27T06:01:45.148Z,95946.50
2022-07-27T06:04:14.633Z,95960.03
2022-07-27T06:06:59.913Z,95964.38
2022-07-27T06:09:26.244Z,95960.03
2022-07-27T06:11:52.665Z,95961.72
2022-07-27T06:14:19.375Z,95955.34
2022-07-27T06:16:45.812Z,95963.16
2022-07-27T06:19:12.455Z,95965.81
2022-07-27T06:21:39.147Z,95957.16
2022-07-27T06:24:05.677Z,95962.00
2022-07-27T06:26:32.068Z,95958.38
2022-07-27T06:29:01.051Z,95959.78
2022-07-27T06:31:29.539Z,95961.22
2022-07-27T06:34:02.615Z,95954.03
2022-07-27T06:36:29.426Z,95960.84
2022-07-27T06:38:55.872Z,95960.72
2022-07-27T06:41:22.279Z,95967.91
2022-07-27T06:43:48.634Z,95969.44
2022-07-27T06:46:15.117Z,95959.59
2022-07-27T06:48:41.623Z,95971.94
2022-07-27T06:51:08.343Z,95974.59
2022-07-27T06:53:36.269Z,95974.59
2022-07-27T06:56:04.397Z,95964.03
2022-07-27T06:58:31.683Z,95956.25
2022-07-27T07:00:59.653Z,95956.13
2022-07-27T07:03:26.191Z,95959.72
2022-07-27T07:05:52.603Z,95962.38
2022-07-27T07:08:18.938Z,95960.72
2022-07-27T07:10:45.745Z,95967.66
2022-07-27T07:13:12.125Z,95976.25
2022-07-27T07:15:39.685Z,95958.50
2022-07-27T07:18:07.117Z,95968.78
2022-07-27T07:20:34.079Z,95966.00
2022-07-27T07:23:00.788Z,95964.91
2022-07-27T07:25:27.940Z,95961.31
2022-07-27T07:27:54.889Z,95964.63
2022-07-27T07:30:21.723Z,95967.13
2022-07-27T07:32:48.454Z,95961.72
2022-07-27T07:35:15.002Z,95972.97
2022-07-27T07:37:41.334Z,95967.00
2022-07-27T07:40:32.565Z,95965.22
2022-07-27T07:42:56.834Z,95967.69
2022-07-27T07:45:23.884Z,95967.69
2022-07-27T07:47:51.038Z,95964.09
2022-07-27T07:50:17.980Z,95964.09
2022-07-27T07:52:44.618Z,95955.34
2022-07-27T07:55:11.239Z,95961.47
2022-07-27T07:57:38.015Z,95965.75
2022-07-27T08:00:05.033Z,95955.22
2022-07-27T08:02:31.543Z,95958.81
2022-07-27T08:04:59.757Z,95956.06
2022-07-27T08:07:26.393Z,95955.22
2022-07-27T08:09:52.786Z,95949.94
2022-07-27T08:12:19.309Z,95949.94
2022-07-27T08:14:45.764Z,95944.66
2022-07-27T08:17:12.181Z,95947.28
2022-07-27T08:19:40.411Z,95948.16
2022-07-27T08:22:06.953Z,95948.16
2022-07-27T08:24:33.412Z,95943.00
2022-07-27T08:27:00.195Z,95943.00
2022-07-27T08:29:36.906Z,95954.38
2022-07-27T08:32:04.074Z,95945.63
2022-07-27T08:34:32.593Z,95948.28
2022-07-27T08:36:58.981Z,95960.50
2022-07-27T08:40:20.070Z,95960.50
2022-07-27T08:42:11.782Z,95952.56
2022-07-27T08:44:42.053Z,95954.22
2022-07-27T08:47:09.658Z,95946.31
2022-07-27T08:49:43.454Z,95952.44
2022-07-27T08:52:11.658Z,95944.41
2022-07-27T08:54:39.145Z,95949.69
2022-07-27T08:57:06.876Z,95947.16
2022-07-27T08:59:33.279Z,95951.34
2022-07-27T09:02:03.374Z,95945.22
2022-07-27T09:04:30.787Z,95947.72
2022-07-27T09:06:57.195Z,95948.69
2022-07-27T09:09:23.686Z,95960.91
2022-07-27T09:12:03.755Z,95953.84
2022-07-27T09:14:30.944Z,95954.66
2022-07-27T09:17:46.515Z,95954.66
2022-07-27T09:19:56.837Z,95953.72
2022-07-27T09:22:41.566Z,95956.34
2022-07-27T09:25:08.807Z,95956.06
2022-07-27T09:27:35.390Z,95952.72
2022-07-27T09:30:03.744Z,95949.97
2022-07-27T09:32:30.424Z,95943.84
2022-07-27T09:34:56.845Z,95953.41
2022-07-27T09:37:27.164Z,95955.25
2022-07-27T09:40:12.112Z,95952.47
2022-07-27T09:43:14.522Z,95957.75
2022-07-27T09:45:35.420Z,95948.84
2022-07-27T09:48:15.921Z,95955.78
2022-07-27T09:50:58.419Z,95952.19
2022-07-27T09:53:42.476Z,95952.19
2022-07-27T09:56:11.372Z,95959.16
2022-07-27T09:58:43.771Z,95953.88
2022-07-27T10:01:12.155Z,95965.25
2022-07-27T10:03:39.400Z,95971.38
2022-07-27T10:06:06.171Z,95964.44
2022-07-27T10:08:32.970Z,95958.84
2022-07-27T10:10:59.452Z,95959.84
2022-07-27T10:13:30.164Z,95969.41
2022-07-27T10:15:56.956Z,95965.81
2022-07-27T10:18:36.131Z,95960.53
2022-07-27T10:21:07.174Z,95959.69
2022-07-27T10:23:35.845Z,95963.19
2022-07-27T10:26:12.029Z,95956.94
2022-07-27T10:28:57.500Z,95963.88
2022-07-27T10:31:25.875Z,95960.38
2022-07-27T10:33:53.824Z,95953.31
2022-07-27T10:36:23.057Z,95952.34
2022-07-27T10:38:50.774Z,95946.09
2022-07-27T10:41:20.977Z,95961.09
2022-07-27T10:43:47.710Z,95951.38
2022-07-27T10:46:19.681Z,95952.34
2022-07-27T10:48:49.111Z,95951.53
2022-07-27T10:51:18.654Z,95942.75
2022-07-27T10:56:45.503Z,95942.75
2022-07-27T10:59:11.909Z,95942.75
2022-07-27T11:01:54.870Z,95942.75
2022-07-27T11:04:21.643Z,95952.19
2022-07-27T11:07:23.124Z,95936.38
2022-07-27T11:12:28.180Z,95947.78
2022-07-27T11:14:55.905Z,95932.63
2022-07-27T11:17:52.432Z,95937.75
2022-07-27T11:20:10.752Z,95926.34
2022-07-27T11:25:26.898Z,95928.03
2022-07-27T11:27:53.338Z,95921.91
2022-07-27T11:30:26.361Z,95928.84
2022-07-27T11:32:53.391Z,95919.16
2022-07-27T11:35:20.458Z,95916.50
2022-07-27T11:37:58.233Z,95921.66
2022-07-27T11:40:53.821Z,95925.94
2022-07-27T11:43:11.057Z,95925.81
2022-07-27T11:45:41.917Z,95916.91
2022-07-27T11:48:12.018Z,95917.78
2022-07-27T11:50:58.316Z,95930.84
2022-07-27T11:53:24.790Z,95920.28
2022-07-27T11:55:51.344Z,95916.66
2022-07-27T11:58:18.522Z,95915.66
2022-07-27T12:00:44.917Z,95921.66
2022-07-27T12:03:20.655Z,95909.41
2022-07-27T12:05:56.855Z,95907.47
2022-07-27T12:08:23.638Z,95914.44
2022-07-27T12:11:00.051Z,95901.94
2022-07-27T12:13:33.383Z,95896.66
2022-07-27T12:15:59.979Z,95898.31
2022-07-27T12:18:26.450Z,95890.41
2022-07-27T12:20:53.479Z,95892.91
2022-07-27T12:23:19.932Z,95890.25
2022-07-27T12:25:47.057Z,95889.97
2022-07-27T12:28:15.550Z,95893.47
2022-07-27T12:30:49.674Z,95892.50
2022-07-27T12:33:25.164Z,95892.50
2022-07-27T12:35:51.713Z,95890.56
2022-07-27T12:38:18.223Z,95896.66
2022-07-27T12:40:46.361Z,95891.38
2022-07-27T12:43:16.185Z,95884.16
2022-07-27T12:45:42.942Z,95890.28
2022-07-27T12:48:11.190Z,95887.66
2022-07-27T12:50:38.173Z,95877.75
2022-07-27T12:53:04.888Z,95880.41
2022-07-27T12:55:31.489Z,95884.69
2022-07-27T12:57:58.039Z,95884.69
2022-07-27T13:00:32.700Z,95888.06
2022-07-27T13:03:00.857Z,95880.13
2022-07-27T13:05:27.659Z,95884.44
2022-07-27T13:07:54.197Z,95877.50
2022-07-27T13:10:20.742Z,95874.00
2022-07-27T13:12:48.488Z,95880.13
2022-07-27T13:15:15.305Z,95875.78
2022-07-27T13:17:42.357Z,95879.16
2022-07-27T13:20:09.938Z,95873.03
2022-07-27T13:22:40.119Z,95874.72
2022-07-27T13:25:15.385Z,95870.25
2022-07-27T13:27:43.855Z,95873.88
2022-07-27T13:30:11.004Z,95865.66
2022-07-27T13:32:38.318Z,95859.41
2022-07-27T13:35:05.636Z,95858.41
2022-07-27T13:37:32.109Z,95863.56
2022-07-27T13:39:58.519Z,95853.84
2022-07-27T13:42:26.111Z,95853.84
2022-07-27T13:45:07.814Z,95848.56
2022-07-27T13:47:35.529Z,95844.94
2022-07-27T13:50:02.007Z,95850.22
2022-07-27T13:52:28.521Z,95846.59
2022-07-27T13:54:55.342Z,95846.59
2022-07-27T13:57:21.766Z,95837.69
2022-07-27T13:59:48.185Z,95837.69
2022-07-27T14:02:14.950Z,95842.97
2022-07-27T14:04:42.933Z,95827.81
2022-07-27T14:07:10.066Z,95825.19
2022-07-27T14:09:54.995Z,95829.50
2022-07-27T14:12:21.463Z,95823.22
2022-07-27T14:14:47.898Z,95819.63
2022-07-27T14:17:14.381Z,95824.91
2022-07-27T14:19:40.818Z,95814.34
2022-07-27T14:22:10.628Z,95821.28
2022-07-27T14:24:39.910Z,95816.00
2022-07-27T14:27:06.657Z,95810.72
2022-07-27T14:29:33.872Z,95810.72
2022-07-27T14:32:00.783Z,95812.38
2022-07-27T14:34:27.233Z,95812.38
2022-07-27T14:36:53.793Z,95802.78
2022-07-27T14:39:20.206Z,95812.38
2022-07-27T14:41:46.877Z,95810.44
2022-07-27T14:44:14.101Z,95805.97
2022-07-27T14:46:40.754Z,95806.81
2022-07-27T14:49:08.504Z,95806.81
2022-07-27T14:51:35.710Z,95803.19
2022-07-27T14:54:03.113Z,95796.25
2022-07-27T14:56:29.638Z,95797.91
2022-07-27T14:58:56.083Z,95787.34
2022-07-27T15:01:22.566Z,95792.63
2022-07-27T15:03:49.280Z,95796.91
2022-07-27T15:06:15.765Z,95804.84
2022-07-27T15:08:42.210Z,95794.28
2022-07-27T15:11:09.807Z,95808.19
2022-07-27T15:13:36.380Z,95789.69
2022-07-27T15:16:03.433Z,95782.75
2022-07-27T15:18:36.381Z,95793.31
2022-07-27T15:21:08.532Z,95793.16
2022-07-27T15:23:40.487Z,95786.22
2022-07-27T15:26:06.902Z,95785.41
2022-07-27T15:28:33.338Z,95783.56
2022-07-27T15:30:59.807Z,95779.13
2022-07-27T15:33:26.839Z,95773.69
2022-07-27T15:35:53.372Z,95775.50
2022-07-27T15:38:19.764Z,95770.22
2022-07-27T15:40:46.214Z,95773.69
2022-07-27T15:43:13.708Z,95775.50
2022-07-27T15:45:41.515Z,95766.72
2022-07-27T15:48:08.794Z,95768.41
2022-07-27T15:50:36.168Z,95767.56
2022-07-27T15:53:02.665Z,95773.69
2022-07-27T15:55:29.061Z,95773.69
2022-07-27T15:57:55.441Z,95765.91
2022-07-27T16:00:21.881Z,95763.28
2022-07-27T16:02:48.361Z,95772.00
2022-07-27T16:05:14.834Z,95765.91
2022-07-27T16:07:41.858Z,95758.97
2022-07-27T16:10:08.536Z,95760.63
2022-07-27T16:12:38.187Z,95762.28
2022-07-27T16:15:05.226Z,95760.31
2022-07-27T16:17:31.687Z,95760.31
2022-07-27T16:19:58.112Z,95752.25
2022-07-27T16:22:25.007Z,95757.38
2022-07-27T16:24:51.705Z,95750.03
2022-07-27T16:27:18.229Z,95741.91
2022-07-27T16:29:45.187Z,95741.91
2022-07-27T16:32:12.328Z,95752.50
2022-07-27T16:34:39.544Z,95745.56
2022-07-27T16:37:06.094Z,95744.75
2022-07-27T16:39:33.625Z,95738.59
2022-07-27T16:42:00.374Z,95743.91
2022-07-27T16:44:26.792Z,95735.25
2022-07-27T16:46:53.666Z,95735.25
2022-07-27T16:49:20.255Z,95748.47
2022-07-27T16:51:47.370Z,95745.03
2022-07-27T16:54:14.010Z,95738.09
2022-07-27T16:56:40.396Z,95739.88
2022-07-27T16:59:06.874Z,95731.09
2022-07-27T17:01:34.109Z,95738.22
2022-07-27T17:04:00.650Z,95736.41
2022-07-27T17:06:27.159Z,95740.88
2022-07-27T17:08:54.002Z,95736.53
2022-07-27T17:11:22.013Z,95743.66
2022-07-27T17:13:49.007Z,95748.09
2022-07-27T17:16:15.769Z,95740.16
2022-07-27T17:18:42.263Z,95739.34
2022-07-27T17:21:12.659Z,95738.50
2022-07-27T17:23:40.010Z,95741.16
2022-07-27T17:26:07.370Z,95737.84
2022-07-27T17:31:02.085Z,95743.94
2022-07-27T17:33:30.036Z,95743.94
2022-07-27T17:35:56.530Z,95741.44
2022-07-27T17:38:22.986Z,95752.00
2022-07-27T17:40:49.378Z,95749.34
2022-07-27T17:43:15.736Z,95747.69
2022-07-27T17:45:42.184Z,95748.69
2022-07-27T17:48:08.536Z,95747.84
2022-07-27T17:50:34.978Z,95756.63
2022-07-27T17:53:01.731Z,95747.03
2022-07-27T17:55:28.333Z,95752.31
2022-07-27T17:57:55.357Z,95754.25
2022-07-27T18:00:21.738Z,95751.47
2022-07-27T18:02:48.126Z,95751.59
2022-07-27T18:05:14.660Z,95759.53
2022-07-27T18:07:41.066Z,95752.59
2022-07-27T18:10:08.073Z,95745.66
2022-07-27T18:12:35.560Z,95752.59
2022-07-27T18:15:37.419Z,95758.88
2022-07-27T18:18:04.451Z,95760.81
2022-07-27T18:20:30.995Z,95754.53
2022-07-27T18:22:57.518Z,95762.47
2022-07-27T18:25:25.388Z,95767.06
2022-07-27T18:27:51.816Z,95765.25
2022-07-27T18:30:18.516Z,95756.50
2022-07-27T18:32:47.647Z,95762.78
2022-07-27T18:35:14.221Z,95760.13
2022-07-27T18:37:41.166Z,95758.44
2022-07-27T18:40:09.096Z,95767.06
2022-07-27T18:42:35.852Z,95763.91
2022-07-27T18:45:02.251Z,95769.00
2022-07-27T18:47:28.640Z,95767.34
2022-07-27T18:49:54.996Z,95769.19
2022-07-27T18:52:21.373Z,95765.69
2022-07-27T18:54:47.760Z,95777.91
2022-07-27T18:57:14.122Z,95765.69
2022-07-27T18:59:41.174Z,95769.31
2022-07-27T19:02:08.248Z,95764.03
2022-07-27T19:04:34.868Z,95768.34
2022-07-27T19:07:01.303Z,95767.63
2022-07-27T19:09:28.230Z,95775.56
2022-07-27T19:11:54.615Z,95767.63
2022-07-27T19:14:23.029Z,95772.91
2022-07-27T19:16:50.371Z,95767.63
2022-07-27T19:19:22.285Z,95766.81
2022-07-27T19:21:49.458Z,95771.25
2022-07-27T19:24:15.879Z,95766.97
2022-07-27T19:26:42.460Z,95762.66
2022-07-27T19:29:09.740Z,95759.16
2022-07-27T19:31:36.986Z,95766.25
2022-07-27T19:34:03.821Z,95764.31
2022-07-27T19:36:30.350Z,95766.25
2022-07-27T19:38:56.991Z,95771.53
2022-07-27T19:41:23.388Z,95759.31
2022-07-27T19:43:49.798Z,95766.25
2022-07-27T19:46:16.276Z,95761.94
2022-07-27T19:48:42.781Z,95765.44
2022-07-27T19:51:09.266Z,95765.44
2022-07-27T19:53:35.772Z,95775.16
2022-07-27T19:56:02.334Z,95773.50
2022-07-27T19:58:28.764Z,95780.56
2022-07-27T20:00:55.838Z,95781.44
2022-07-27T20:03:22.921Z,95774.47
2022-07-27T20:05:49.292Z,95777.13
2022-07-27T20:08:15.743Z,95782.41
2022-07-27T20:10:42.544Z,95786.00
2022-07-27T20:13:09.927Z,95779.75
2022-07-27T20:15:36.309Z,95782.41
2022-07-27T20:18:02.964Z,95780.72
2022-07-27T20:20:29.458Z,95779.06
2022-07-27T20:22:55.860Z,95791.28
2022-07-27T20:25:22.857Z,95780.72
2022-07-27T20:27:49.275Z,95782.69
2022-07-27T20:30:17.224Z,95782.69
2022-07-27T20:32:44.399Z,95783.53
2022-07-27T20:35:10.878Z,95782.69
2022-07-27T20:37:37.329Z,95781.03
2022-07-27T20:40:05.401Z,95781.03
2022-07-27T20:42:32.312Z,95782.69
2022-07-27T20:44:58.926Z,95774.91
2022-07-27T20:47:27.073Z,95775.75
2022-07-27T20:49:55.119Z,95778.38
2022-07-27T20:52:21.942Z,95782.69
2022-07-27T20:54:48.353Z,95774.91
2022-07-27T20:57:14.762Z,95769.75
2022-07-27T20:59:41.151Z,95772.41
2022-07-27T21:02:08.015Z,95772.41
2022-07-27T21:04:34.425Z,95771.59
2022-07-27T21:07:00.816Z,95767.13
2022-07-27T21:09:27.231Z,95772.41
2022-07-27T21:11:53.666Z,95769.91
2022-07-27T21:14:20.141Z,95770.75
2022-07-27T21:16:46.608Z,95769.91
2022-07-27T21:19:13.463Z,95764.47
2022-07-27T21:21:40.198Z,95761.97
2022-07-27T21:24:17.609Z,95774.38
2022-07-27T21:26:48.633Z,95778.00
2022-07-27T21:29:15.356Z,95774.38
2022-07-27T21:31:41.821Z,95784.94
2022-07-27T21:34:08.947Z,95778.81
2022-07-27T21:36:35.360Z,95781.44
2022-07-27T21:39:01.794Z,95783.28
2022-07-27T21:41:28.255Z,95778.94
2022-07-27T21:43:54.742Z,95783.28
2022-07-27T21:46:21.114Z,95780.63
2022-07-27T21:48:48.634Z,95786.72
2022-07-27T21:51:18.206Z,95786.84
2022-07-27T21:53:45.492Z,95781.56
2022-07-27T21:56:13.611Z,95784.22
2022-07-27T21:58:40.025Z,95777.16
2022-07-27T22:01:08.917Z,95779.91
2022-07-27T22:03:36.866Z,95781.56
2022-07-27T22:06:04.529Z,95779.91
2022-07-27T22:08:30.948Z,95778.25
2022-07-27T22:10:57.376Z,95772.97
2022-07-27T22:13:23.815Z,95767.69
2022-07-27T22:15:50.225Z,95777.41
2022-07-27T22:18:16.848Z,95771.31
2022-07-27T22:20:43.237Z,95771.31
2022-07-27T22:23:09.678Z,95771.31
2022-07-27T22:25:36.773Z,95776.59
2022-07-27T22:28:03.262Z,95774.06
2022-07-27T22:30:29.717Z,95775.88
2022-07-27T22:32:56.214Z,95772.25
2022-07-27T22:35:22.865Z,95778.50
2022-07-27T22:37:49.622Z,95773.22
2022-07-27T22:40:15.982Z,95773.22
2022-07-27T22:42:44.367Z,95776.84
2022-07-27T22:45:11.151Z,95776.84
2022-07-27T22:47:38.215Z,95778.50
2022-07-27T22:50:05.287Z,95782.13
2022-07-27T22:52:31.662Z,95783.13
2022-07-27T22:54:58.076Z,95780.47
2022-07-27T22:57:25.785Z,95784.91
2022-07-27T22:59:52.482Z,95780.47
2022-07-27T23:02:19.645Z,95793.81
2022-07-27T23:04:46.314Z,95791.03
2022-07-27T23:07:12.792Z,95781.44
2022-07-27T23:09:39.194Z,95780.47
2022-07-27T23:12:05.778Z,95784.06
2022-07-27T23:14:32.198Z,95774.47
2022-07-27T23:16:58.618Z,95779.78
2022-07-27T23:19:25.045Z,95778.91
2022-07-27T23:21:54.980Z,95782.41
2022-07-27T23:24:29.176Z,95792.13
2022-07-27T23:26:55.986Z,95791.31
2022-07-27T23:29:22.362Z,95796.59
2022-07-27T23:31:48.849Z,95792.28
2022-07-27T23:34:15.665Z,95792.13
2022-07-27T23:36:42.789Z,95791.31
2022-07-27T23:39:09.764Z,95788.66
2022-07-27T23:41:36.299Z,95785.19
2022-07-27T23:44:02.742Z,95792.28
2022-07-27T23:46:29.197Z,95789.66
2022-07-27T23:48:55.659Z,95801.88
2022-07-27T23:51:22.132Z,95795.06
2022-07-27T23:53:48.556Z,95791.44
2022-07-27T23:56:15.200Z,95793.25
2022-07-27T23:58:41.717Z,95794.22
